WDI weather

Wondai Airport
Queensland, Australia

Public forecast

Using degrees Celsius for public forecast. Weather courtesy of forecast.io.

Closest aviation weather report (METAR) to Wondai Airport

Closest report is Kingaroy Airport, 17.9 nm (33.1 km) S. Retrieved 2020/04/08 04:00 UTC (1 hour ago):

YKRY 080400Z AUTO 11010KT 9999 // BKN031 BKN066 BKN079 24/15 Q1018

Closest aviation forecast (TAF) to Wondai Airport

Closest forecast is RAAF Base Amberley, 93.4 nm (173.0 km) SSE. Retrieved 2020-04-08 00:00 UTC (5 hours ago):

TAF YAMB 072310Z 0800/0818 15010KT 9999 SCT035 BKN080 FM080300 11010KT 9999 -SHRA SCT040 BKN070 FM081000 13006KT 9999 NSW SCT045 BKN080 FM081600 18004KT 9999 FEW030 SCT080